Agate Beach, Oregon
Current Conditions -  °F | °C
As of 4:35 AM on Saturday 20 Dec 2014 (Local Time) from KONP Reporting Station
Moderate Rain Moderate Rain  
Wind Chill: 52°   Ceiling: 500
Heat Index: 52°   Visibility: 2mi
Dew Point: 52°   Wind: 25mph
Humidity: 100%   Direction: 200°SSW
Pressure: 29.75"   Gusts: 36mph
Location:  44.6805°N, 124.021°W
Report Text: KONP 201235Z AUTO 20022G31KT 2SM RA OVC005 11/11 A2975 RMK AO2 P0012
Loading
Personal Weather Stations






























Interactive Weather Map New forecast layout! Learn more

10-Day Weather Forecast

Advertisements
Track Severe Weather on mobile